KMGW

Morgantown Municipal-Walter L Bill Hart Field Airport

Morgantown, West Virginia, USA
METAR KMGW 191053Z AUTO 00000KT 10SM CLR M05/M06 A3008 RMK AO2 SLP198 I1000 T10501061
Observed Flight Rules
Dec-19 @ 10:53 UTC (60 minutes ago) Visual Flight Rules
Visibility Clouds
10 miles
  • Clear skies
Temperatures Readings
Current -5°C / 23°F
Dewpoint -6°C / 21°F
Humidity 93%
Altimeter 30.08" Hg
Pressure 1019.8 hPa
Elevation 378
METAR KMGW 191053Z AUTO 00000KT 10SM CLR M05/M06 A3008 RMK AO2 SLP198 I1000 T10501061
Observed Flight Rules
Dec-19 @ 10:53 UTC
(60 minutes ago)
VFR
Clouds
  • Clear skies
Temperature Dewpoint
-5°C / 23°F -6°C / 21°F
Humidity Altimeter Pressure
93% 30.08" Hg 1019.8 hPa